createdAt,value
2018-11-23T00:07:04.265Z,3.30
2018-11-23T00:26:53.555Z,3.30
2018-11-23T00:29:21.924Z,3.40
2018-11-23T00:31:50.502Z,3.40
2018-11-23T00:34:18.916Z,3.40
2018-11-23T00:54:09.216Z,3.20
2018-11-23T01:13:58.485Z,3.20
2018-11-23T01:33:47.780Z,3.40
2018-11-23T01:36:16.983Z,3.50
2018-11-23T01:38:45.345Z,3.50
2018-11-23T01:41:13.710Z,3.50
2018-11-23T01:43:46.033Z,3.50
2018-11-23T01:46:14.410Z,3.40
2018-11-23T02:06:03.955Z,3.30
2018-11-23T02:08:32.313Z,3.40
2018-11-23T02:28:22.154Z,3.50
2018-11-23T02:30:51.405Z,3.40
2018-11-23T02:50:41.166Z,3.20
2018-11-23T02:53:09.524Z,3.20
2018-11-23T02:55:37.890Z,3.30
2018-11-23T02:58:06.470Z,3.30
2018-11-23T03:17:55.657Z,3.20
2018-11-23T03:20:24.070Z,3.20
2018-11-23T03:22:52.446Z,3.20
2018-11-23T03:25:20.809Z,3.30
2018-11-23T03:27:49.198Z,3.30
2018-11-23T03:30:18.967Z,3.30
2018-11-23T03:32:48.486Z,3.40
2018-11-23T03:35:17.141Z,3.20
2018-11-23T03:37:45.829Z,3.00
2018-11-23T03:40:14.266Z,3.10
2018-11-23T04:00:07.477Z,3.40
2018-11-23T04:02:35.928Z,3.50
2018-11-23T04:05:04.688Z,3.50
2018-11-23T04:07:33.065Z,3.50
2018-11-23T04:10:01.470Z,3.50
2018-11-23T04:12:29.833Z,3.50
2018-11-23T04:14:58.432Z,3.50
2018-11-23T04:17:26.826Z,3.50
2018-11-23T04:19:55.213Z,3.50
2018-11-23T04:22:23.575Z,3.50
2018-11-23T04:42:13.361Z,3.60
2018-11-23T04:44:41.747Z,3.40
2018-11-23T04:47:10.119Z,3.50
2018-11-23T04:49:38.537Z,3.50
2018-11-23T05:09:27.278Z,3.20
2018-11-23T05:11:55.703Z,3.30
2018-11-23T05:31:45.469Z,3.40
2018-11-23T05:34:16.137Z,3.40
2018-11-23T05:36:46.350Z,3.40
2018-11-23T05:39:14.750Z,3.30
2018-11-23T05:41:43.117Z,3.30
2018-11-23T05:44:11.501Z,3.30
2018-11-23T05:46:39.902Z,3.30
2018-11-23T05:49:08.287Z,3.30
2018-11-23T05:51:36.655Z,3.40
2018-11-23T06:11:26.353Z,3.20
2018-11-23T06:13:54.730Z,3.00
2018-11-23T06:16:23.097Z,3.10
2018-11-23T06:18:51.517Z,3.20
2018-11-23T06:21:19.897Z,3.30
2018-11-23T06:23:48.291Z,3.20
2018-11-23T06:26:20.223Z,3.20
2018-11-23T06:28:48.656Z,3.10
2018-11-23T06:31:17.075Z,3.10
2018-11-23T06:33:46.539Z,3.00
2018-11-23T06:36:15.584Z,3.10
2018-11-23T06:38:44.034Z,3.00
2018-11-23T06:41:12.886Z,3.10
2018-11-23T06:43:41.308Z,3.20
2018-11-23T06:46:11.076Z,3.20
2018-11-23T06:48:40.325Z,3.20
2018-11-23T06:51:08.968Z,3.20
2018-11-23T06:53:37.382Z,3.20
2018-11-23T06:56:07.684Z,3.20
2018-11-23T06:58:36.078Z,3.00
2018-11-23T07:18:26.841Z,3.10
2018-11-23T07:20:55.204Z,3.10
2018-11-23T07:40:55.727Z,3.30
2018-11-23T08:00:45.209Z,3.60
2018-11-23T08:03:14.206Z,3.70
2018-11-23T08:05:42.578Z,3.60
2018-11-23T08:08:10.953Z,3.60
2018-11-23T08:10:38.560Z,3.60
2018-11-23T08:13:06.977Z,3.60
2018-11-23T08:15:35.365Z,3.70
2018-11-23T08:18:06.783Z,3.70
2018-11-23T08:20:35.164Z,3.70
2018-11-23T08:23:03.701Z,3.70
2018-11-23T08:25:33.550Z,3.80
2018-11-23T08:28:01.919Z,3.80
2018-11-23T08:30:30.709Z,3.80
2018-11-23T08:32:59.677Z,3.90
2018-11-23T08:35:28.039Z,4.00
2018-11-23T08:37:56.400Z,4.00
2018-11-23T08:40:27.124Z,4.00
2018-11-23T08:42:56.085Z,3.90
2018-11-23T08:45:25.816Z,4.00
2018-11-23T08:47:54.234Z,4.00
2018-11-23T08:50:24.733Z,4.10
2018-11-23T08:52:53.108Z,4.10
2018-11-23T08:55:21.922Z,4.20
2018-11-23T08:57:50.293Z,4.20
2018-11-23T09:00:23.482Z,4.30
2018-11-23T09:02:53.276Z,4.30
2018-11-23T09:05:21.656Z,4.30
2018-11-23T09:07:51.417Z,4.30
2018-11-23T09:10:21.340Z,4.40
2018-11-23T09:12:51.352Z,4.40
2018-11-23T09:15:19.766Z,4.40
2018-11-23T09:17:48.133Z,4.40
2018-11-23T09:20:17.323Z,4.40
2018-11-23T09:22:45.973Z,4.40
2018-11-23T09:25:16.745Z,4.50
2018-11-23T09:27:45.122Z,4.50
2018-11-23T09:30:17.804Z,4.50
2018-11-23T09:32:46.966Z,4.50
2018-11-23T09:35:15.344Z,4.50
2018-11-23T09:37:44.221Z,4.40
2018-11-23T09:40:16.050Z,4.40
2018-11-23T09:42:44.433Z,4.30
2018-11-23T09:45:15.118Z,4.30
2018-11-23T09:47:44.283Z,4.30
2018-11-23T09:50:14.159Z,4.30
2018-11-23T10:10:05.980Z,4.50
2018-11-23T10:12:34.365Z,4.60
2018-11-23T10:15:02.764Z,4.60
2018-11-23T10:17:31.296Z,4.50
2018-11-23T10:19:59.726Z,4.60
2018-11-23T10:22:28.098Z,4.60
2018-11-23T10:24:56.506Z,4.60
2018-11-23T10:27:24.894Z,4.60
2018-11-23T10:47:14.528Z,4.30
2018-11-23T10:49:42.893Z,4.30
2018-11-23T10:52:11.722Z,4.30
2018-11-23T10:54:40.113Z,4.30
2018-11-23T10:57:08.492Z,4.30
2018-11-23T10:59:36.858Z,4.30
2018-11-23T11:02:10.670Z,4.30
2018-11-23T11:04:44.373Z,4.30
2018-11-23T11:07:12.809Z,4.40
2018-11-23T11:09:41.197Z,4.30
2018-11-23T11:12:09.661Z,4.40
2018-11-23T11:31:59.776Z,4.20
2018-11-23T11:34:28.137Z,4.10
2018-11-23T11:36:56.505Z,4.10
2018-11-23T11:39:24.893Z,4.10
2018-11-23T11:41:53.263Z,4.00
2018-11-23T11:44:21.633Z,4.00
2018-11-23T11:46:50.053Z,4.00
2018-11-23T12:06:39.123Z,4.20
2018-11-23T12:09:09.717Z,4.20
2018-11-23T12:11:38.085Z,4.20
2018-11-23T12:14:06.549Z,4.20
2018-11-23T12:16:35.063Z,4.20
2018-11-23T12:19:03.446Z,4.20
2018-11-23T12:21:31.862Z,4.10
2018-11-23T12:24:01.021Z,4.20
2018-11-23T12:26:29.397Z,4.20
2018-11-23T12:28:57.809Z,4.20
2018-11-23T12:31:26.232Z,4.20
2018-11-23T12:33:54.613Z,4.20
2018-11-23T12:36:23.584Z,4.20
2018-11-23T12:38:52.056Z,4.30
2018-11-23T12:41:20.493Z,4.30
2018-11-23T12:43:49.604Z,4.30
2018-11-23T12:46:18.012Z,4.30
2018-11-23T13:06:07.887Z,4.50
2018-11-23T13:08:36.335Z,4.50
2018-11-23T13:28:33.005Z,4.60
2018-11-23T13:31:01.405Z,4.50
2018-11-23T13:33:29.795Z,4.50
2018-11-23T13:35:58.161Z,4.60
2018-11-23T13:38:26.561Z,4.60
2018-11-23T13:40:55.061Z,4.60
2018-11-23T13:43:23.434Z,4.70
2018-11-23T14:03:14.050Z,4.50
2018-11-23T14:05:42.436Z,4.50
2018-11-23T14:08:10.857Z,4.60
2018-11-23T14:10:39.292Z,4.60
2018-11-23T14:13:11.623Z,4.60
2018-11-23T14:15:36.058Z,4.60
2018-11-23T14:18:04.479Z,4.70
2018-11-23T14:37:55.381Z,4.80
2018-11-23T14:40:24.158Z,4.70
2018-11-23T14:42:53.348Z,4.70
2018-11-23T14:45:24.349Z,4.60
2018-11-23T14:47:53.629Z,4.70
2018-11-23T14:50:23.753Z,4.60
2018-11-23T15:10:15.425Z,4.50
2018-11-23T15:30:07.257Z,4.50
2018-11-23T15:32:35.860Z,4.50
2018-11-23T15:35:04.458Z,4.50
2018-11-23T15:54:55.336Z,4.60
2018-11-23T15:57:23.729Z,4.60
2018-11-23T16:17:13.484Z,4.50
2018-11-23T16:37:02.682Z,4.50
2018-11-23T16:39:31.324Z,4.60
2018-11-23T16:41:59.878Z,4.60
2018-11-23T17:01:50.389Z,4.60
2018-11-23T17:21:40.113Z,4.60
2018-11-23T17:24:08.805Z,4.70
2018-11-23T17:26:37.182Z,4.70
2018-11-23T17:29:05.831Z,4.80
2018-11-23T17:31:34.679Z,4.80
2018-11-23T17:51:24.142Z,4.70
2018-11-23T17:53:52.536Z,4.80
2018-11-23T17:56:20.957Z,4.80
2018-11-23T17:58:49.355Z,4.80
2018-11-23T18:01:17.912Z,4.80
2018-11-23T18:03:48.340Z,4.80
2018-11-23T18:23:38.485Z,4.80
2018-11-23T18:26:06.865Z,4.80
2018-11-23T18:45:56.229Z,4.80
2018-11-23T18:48:24.629Z,4.70
2018-11-23T19:08:14.201Z,4.70
2018-11-23T19:10:42.557Z,4.70
2018-11-23T19:13:10.930Z,4.70
2018-11-23T19:15:39.350Z,4.70
2018-11-23T19:35:29.545Z,4.70
2018-11-23T19:37:58.265Z,4.80
2018-11-23T19:57:47.514Z,4.80
2018-11-23T20:00:21.467Z,4.90
2018-11-23T20:02:49.968Z,4.90
2018-11-23T20:05:18.462Z,4.90
2018-11-23T20:07:48.172Z,4.90
2018-11-23T20:10:17.722Z,4.90
2018-11-23T20:12:47.189Z,4.90
2018-11-23T20:15:17.055Z,4.90
2018-11-23T20:17:48.065Z,4.90
2018-11-23T20:20:17.101Z,4.90
2018-11-23T20:22:46.832Z,4.90
2018-11-23T20:42:36.510Z,4.90
2018-11-23T21:02:26.325Z,4.90
2018-11-23T21:04:54.729Z,4.90
2018-11-23T21:07:23.153Z,4.90
2018-11-23T21:09:51.549Z,4.90
2018-11-23T21:12:19.973Z,4.90
2018-11-23T21:32:09.409Z,4.70
2018-11-23T21:51:59.089Z,4.70
2018-11-23T21:54:27.517Z,4.70
2018-11-23T22:14:17.921Z,4.70
2018-11-23T22:16:46.318Z,4.70
2018-11-23T22:19:14.694Z,4.80
2018-11-23T22:21:43.100Z,4.90
2018-11-23T22:24:11.513Z,4.90
2018-11-23T22:26:39.888Z,4.90
2018-11-23T22:46:30.397Z,5.00
2018-11-23T23:06:18.360Z,5.00
2018-11-23T23:08:47.033Z,5.00
2018-11-23T23:11:15.397Z,5.00
2018-11-23T23:13:43.779Z,5.10
2018-11-23T23:16:13.017Z,5.00
2018-11-23T23:18:41.382Z,5.10
2018-11-23T23:21:09.772Z,5.10
2018-11-23T23:23:39.233Z,5.10
2018-11-23T23:43:28.984Z,5.10
